createdAt,value
2018-07-21T00:01:25.371Z,21.00
2018-07-21T00:03:53.663Z,21.00
2018-07-21T00:06:21.801Z,20.90
2018-07-21T00:08:49.939Z,20.90
2018-07-21T00:13:45.968Z,20.70
2018-07-21T00:16:14.115Z,20.60
2018-07-21T00:18:42.250Z,20.60
2018-07-21T00:21:10.395Z,20.60
2018-07-21T00:26:06.447Z,20.50
2018-07-21T00:28:34.614Z,20.50
2018-07-21T00:31:02.771Z,20.40
2018-07-21T00:33:30.906Z,20.40
2018-07-21T00:35:59.038Z,20.40
2018-07-21T00:38:27.175Z,20.40
2018-07-21T00:40:55.320Z,20.40
2018-07-21T00:43:23.458Z,20.40
2018-07-21T00:48:19.494Z,20.30
2018-07-21T00:53:15.584Z,20.30
2018-07-21T00:55:43.715Z,20.20
2018-07-21T00:58:11.895Z,20.20
2018-07-21T01:00:40.049Z,20.10
2018-07-21T01:05:36.109Z,20.00
2018-07-21T01:08:04.264Z,20.00
2018-07-21T01:13:00.387Z,19.80
2018-07-21T01:15:28.507Z,19.80
2018-07-21T01:17:56.663Z,19.70
2018-07-21T01:22:52.710Z,19.70
2018-07-21T01:25:20.855Z,19.70
2018-07-21T01:30:16.887Z,19.80
2018-07-21T01:32:45.015Z,19.80
2018-07-21T01:35:13.166Z,19.70
2018-07-21T01:37:41.312Z,19.70
2018-07-21T01:40:09.442Z,19.60
2018-07-21T01:42:37.603Z,19.60
2018-07-21T01:45:05.895Z,19.60
2018-07-21T01:47:34.043Z,19.60
2018-07-21T01:50:02.192Z,19.60
2018-07-21T01:54:58.221Z,19.60
2018-07-21T01:57:26.363Z,19.60
2018-07-21T01:59:54.490Z,19.60
2018-07-21T02:02:22.627Z,19.50
2018-07-21T02:04:50.895Z,19.50
2018-07-21T02:07:19.138Z,19.50
2018-07-21T02:09:47.347Z,19.50
2018-07-21T02:12:15.634Z,19.50
2018-07-21T02:14:43.771Z,19.50
2018-07-21T02:17:11.911Z,19.50
2018-07-21T02:19:40.043Z,19.40
2018-07-21T02:22:08.187Z,19.40
2018-07-21T02:24:36.331Z,19.40
2018-07-21T02:27:04.505Z,19.40
2018-07-21T02:29:32.626Z,19.40
2018-07-21T02:32:00.772Z,19.40
2018-07-21T02:34:28.893Z,19.30
2018-07-21T02:36:57.019Z,19.30
2018-07-21T02:39:25.188Z,19.30
2018-07-21T02:41:53.320Z,19.30
2018-07-21T02:44:22.127Z,19.20
2018-07-21T02:46:50.281Z,19.10
2018-07-21T02:51:46.318Z,19.10
2018-07-21T02:59:10.332Z,19.10
2018-07-21T03:04:06.396Z,19.10
2018-07-21T03:06:34.518Z,19.10
2018-07-21T03:09:02.695Z,19.10
2018-07-21T03:11:30.824Z,19.10
2018-07-21T03:13:58.954Z,19.20
2018-07-21T03:16:27.079Z,19.10
2018-07-21T03:18:55.207Z,19.10
2018-07-21T03:21:23.350Z,19.10
2018-07-21T03:23:51.547Z,19.00
2018-07-21T03:26:19.645Z,19.00
2018-07-21T03:28:47.786Z,18.90
2018-07-21T03:31:15.911Z,18.90
2018-07-21T03:33:44.131Z,18.90
2018-07-21T03:36:12.283Z,18.80
2018-07-21T03:38:40.408Z,18.80
2018-07-21T03:41:08.540Z,18.80
2018-07-21T03:43:36.675Z,18.70
2018-07-21T03:46:04.961Z,18.70
2018-07-21T03:48:33.096Z,18.70
2018-07-21T03:53:29.138Z,18.70
2018-07-21T03:55:57.266Z,18.70
2018-07-21T03:58:25.517Z,18.70
2018-07-21T04:00:53.620Z,18.70
2018-07-21T04:03:21.756Z,18.60
2018-07-21T04:05:49.903Z,18.60
2018-07-21T04:10:45.940Z,18.60
2018-07-21T04:15:42.015Z,18.60
2018-07-21T04:18:10.162Z,18.60
2018-07-21T04:20:38.287Z,18.50
2018-07-21T04:23:06.467Z,18.50
2018-07-21T04:25:34.590Z,18.60
2018-07-21T04:28:02.722Z,18.60
2018-07-21T04:30:30.866Z,18.60
2018-07-21T04:32:58.990Z,18.60
2018-07-21T04:40:23.032Z,18.60
2018-07-21T04:42:51.162Z,18.50
2018-07-21T04:47:47.277Z,18.60
2018-07-21T04:50:15.399Z,18.60
2018-07-21T04:52:43.558Z,18.60
2018-07-21T04:57:39.679Z,18.70
2018-07-21T05:00:08.056Z,18.70
2018-07-21T05:02:36.220Z,18.80
2018-07-21T05:05:04.401Z,18.80
2018-07-21T05:07:32.588Z,18.80
2018-07-21T05:10:00.667Z,18.80
2018-07-21T05:14:56.700Z,18.70
2018-07-21T05:17:24.843Z,18.70
2018-07-21T05:19:53.006Z,18.70
2018-07-21T05:22:21.141Z,18.70
2018-07-21T05:24:49.288Z,18.60
2018-07-21T05:27:17.430Z,18.60
2018-07-21T05:29:45.575Z,18.70
2018-07-21T05:32:13.706Z,18.60
2018-07-21T05:34:41.843Z,18.60
2018-07-21T05:37:09.969Z,18.60
2018-07-21T05:42:06.032Z,18.60
2018-07-21T05:44:34.182Z,18.60
2018-07-21T05:49:30.365Z,18.60
2018-07-21T05:51:58.669Z,18.60
2018-07-21T05:54:26.825Z,18.70
2018-07-21T05:56:54.979Z,18.70
2018-07-21T05:59:23.121Z,18.80
2018-07-21T06:04:19.206Z,18.90
2018-07-21T06:06:47.316Z,19.10
2018-07-21T06:09:15.466Z,19.10
2018-07-21T06:11:43.603Z,19.20
2018-07-21T06:14:12.041Z,19.20
2018-07-21T06:16:40.200Z,19.30
2018-07-21T06:19:08.371Z,19.40
2018-07-21T06:21:36.502Z,19.50
2018-07-21T06:24:04.747Z,19.50
2018-07-21T06:29:00.859Z,19.70
2018-07-21T06:31:29.005Z,19.80
2018-07-21T06:33:57.122Z,19.90
2018-07-21T06:36:25.254Z,20.00
2018-07-21T06:38:53.411Z,20.10
2018-07-21T06:41:21.542Z,20.20
2018-07-21T06:43:49.700Z,20.30
2018-07-21T06:46:17.811Z,20.30
2018-07-21T06:51:13.850Z,20.50
2018-07-21T06:53:42.096Z,20.60
2018-07-21T06:56:10.240Z,20.70
2018-07-21T06:58:38.916Z,20.80
2018-07-21T07:01:07.332Z,20.90
2018-07-21T07:03:35.458Z,21.00
2018-07-21T07:06:03.714Z,20.90
2018-07-21T07:08:31.863Z,21.00
2018-07-21T07:11:00.032Z,21.20
2018-07-21T07:13:28.180Z,21.40
2018-07-21T07:15:56.335Z,21.40
2018-07-21T07:18:24.446Z,21.50
2018-07-21T07:20:52.590Z,21.80
2018-07-21T07:23:20.735Z,21.80
2018-07-21T07:25:49.077Z,21.80
2018-07-21T07:28:17.214Z,21.90
2018-07-21T07:30:45.339Z,21.80
2018-07-21T07:33:13.470Z,21.80
2018-07-21T07:35:41.632Z,21.90
2018-07-21T07:38:09.775Z,22.00
2018-07-21T07:40:37.907Z,22.00
2018-07-21T07:43:06.497Z,22.10
2018-07-21T07:45:34.659Z,22.20
2018-07-21T07:48:02.818Z,22.20
2018-07-21T07:50:30.995Z,22.20
2018-07-21T07:52:59.557Z,22.10
2018-07-21T07:55:32.078Z,22.20
2018-07-21T07:58:01.363Z,22.20
2018-07-21T08:00:29.889Z,22.20
2018-07-21T08:02:58.638Z,22.10
2018-07-21T08:05:26.923Z,22.00
2018-07-21T08:07:55.182Z,22.00
2018-07-21T08:10:23.343Z,22.00
2018-07-21T08:12:52.759Z,22.00
2018-07-21T08:15:21.455Z,22.00
2018-07-21T08:17:49.926Z,22.00
2018-07-21T08:20:18.218Z,22.20
2018-07-21T08:22:46.374Z,22.20
2018-07-21T08:25:14.503Z,22.20
2018-07-21T08:27:42.840Z,22.30
2018-07-21T08:30:11.933Z,22.30
2018-07-21T08:32:40.938Z,22.30
2018-07-21T08:37:37.883Z,22.60
2018-07-21T08:40:07.093Z,22.70
2018-07-21T08:42:35.260Z,22.80
2018-07-21T08:45:03.628Z,23.00
2018-07-21T08:47:31.770Z,23.30
2018-07-21T08:49:59.902Z,23.40
2018-07-21T08:54:55.984Z,23.70
2018-07-21T08:57:24.159Z,23.90
2018-07-21T08:59:52.302Z,24.10
2018-07-21T09:02:20.459Z,24.30
2018-07-21T09:04:48.586Z,24.40
2018-07-21T09:07:16.736Z,24.60
2018-07-21T09:09:45.314Z,24.60
2018-07-21T09:12:13.479Z,24.50
2018-07-21T09:14:41.616Z,24.50
2018-07-21T09:17:09.793Z,24.30
2018-07-21T09:19:37.929Z,24.20
2018-07-21T09:22:06.110Z,24.20
2018-07-21T09:24:34.259Z,24.10
2018-07-21T09:27:02.388Z,24.10
2018-07-21T09:29:30.507Z,24.10
2018-07-21T09:31:58.642Z,24.20
2018-07-21T09:36:54.738Z,24.20
2018-07-21T09:39:22.866Z,24.20
2018-07-21T09:44:18.926Z,24.70
2018-07-21T09:46:47.075Z,25.00
2018-07-21T09:49:15.243Z,25.00
2018-07-21T09:51:43.358Z,25.20
2018-07-21T09:54:11.498Z,25.30
2018-07-21T09:59:07.543Z,25.60
2018-07-21T10:01:35.707Z,25.90
2018-07-21T10:04:03.867Z,25.90
2018-07-21T10:06:32.026Z,25.80
2018-07-21T10:09:00.167Z,26.00
2018-07-21T10:11:28.310Z,26.20
2018-07-21T10:13:56.435Z,26.20
2018-07-21T10:16:24.630Z,26.20
2018-07-21T10:18:52.775Z,26.20
2018-07-21T10:21:20.911Z,26.30
2018-07-21T10:23:49.053Z,26.50
2018-07-21T10:26:22.661Z,26.60
2018-07-21T10:28:56.195Z,26.70
2018-07-21T10:31:24.334Z,26.90
2018-07-21T10:36:20.427Z,27.00
2018-07-21T10:38:48.562Z,27.10
2018-07-21T10:41:16.702Z,27.20
2018-07-21T10:43:44.849Z,27.40
2018-07-21T10:46:12.958Z,27.50
2018-07-21T10:48:41.101Z,27.60
2018-07-21T10:51:09.219Z,27.70
2018-07-21T10:56:05.300Z,28.00
2018-07-21T10:58:33.464Z,28.10
2018-07-21T11:01:01.583Z,28.10
2018-07-21T11:03:29.716Z,28.10
2018-07-21T11:05:57.847Z,28.30
2018-07-21T11:13:21.906Z,28.40
2018-07-21T11:15:50.036Z,28.60
2018-07-21T11:18:18.506Z,28.70
2018-07-21T11:23:14.711Z,29.20
2018-07-21T11:25:42.860Z,29.50
2018-07-21T11:28:11.006Z,29.80
2018-07-21T11:35:35.159Z,29.50
2018-07-21T11:38:03.134Z,29.50
2018-07-21T11:40:31.261Z,29.80
2018-07-21T11:42:59.431Z,29.70
2018-07-21T11:45:27.551Z,29.80
2018-07-21T11:47:55.696Z,30.00
2018-07-21T11:50:23.855Z,30.20
2018-07-21T11:52:51.991Z,30.40
2018-07-21T11:55:20.183Z,30.50
2018-07-21T12:00:16.228Z,30.60
2018-07-21T12:07:40.199Z,31.30
2018-07-21T12:10:08.352Z,31.60
2018-07-21T12:12:36.600Z,31.80
2018-07-21T12:15:04.871Z,32.10
2018-07-21T12:17:33.102Z,32.40
2018-07-21T12:20:01.251Z,32.50
2018-07-21T12:22:29.398Z,32.60
2018-07-21T12:24:57.546Z,32.70
2018-07-21T12:29:53.586Z,33.00
2018-07-21T12:34:49.708Z,33.30
2018-07-21T12:37:17.818Z,33.50
2018-07-21T12:39:45.968Z,33.70
2018-07-21T12:44:42.107Z,33.80
2018-07-21T12:49:38.351Z,34.30
2018-07-21T12:52:06.506Z,34.40
2018-07-21T12:54:34.650Z,34.50
2018-07-21T12:57:02.774Z,34.60
2018-07-21T13:04:26.819Z,34.10
2018-07-21T13:06:54.947Z,34.50
2018-07-21T13:11:51.033Z,35.90
2018-07-21T13:14:19.174Z,36.60
2018-07-21T13:16:47.307Z,36.30
2018-07-21T13:19:15.457Z,36.20
2018-07-21T13:21:43.582Z,36.40
2018-07-21T13:24:11.718Z,36.60
2018-07-21T13:26:39.883Z,36.20
2018-07-21T13:29:08.030Z,36.00
2018-07-21T13:31:36.154Z,36.40
2018-07-21T13:34:04.303Z,37.20
2018-07-21T13:36:32.439Z,37.30
2018-07-21T13:39:00.584Z,37.40
2018-07-21T13:43:56.765Z,38.30
2018-07-21T13:46:24.866Z,39.10
2018-07-21T13:48:53.007Z,39.80
2018-07-21T13:51:21.140Z,40.10
2018-07-21T13:56:17.168Z,40.30
2018-07-21T13:58:45.315Z,40.10
2018-07-21T14:01:13.446Z,39.90
2018-07-21T14:03:41.571Z,39.80
2018-07-21T14:06:09.706Z,39.20
2018-07-21T14:08:37.927Z,39.20
2018-07-21T14:11:06.159Z,39.20
2018-07-21T14:13:34.276Z,38.90
2018-07-21T14:16:02.395Z,38.60
2018-07-21T14:18:30.529Z,38.60
2018-07-21T14:20:58.674Z,38.60
2018-07-21T14:23:26.815Z,38.50
2018-07-21T14:25:54.987Z,38.40
2018-07-21T14:28:23.075Z,38.10
2018-07-21T14:30:51.248Z,37.60
2018-07-21T14:33:19.362Z,36.80
2018-07-21T14:38:15.403Z,35.60
2018-07-21T14:43:11.419Z,34.40
2018-07-21T14:45:39.558Z,34.00
2018-07-21T14:48:07.873Z,33.80
2018-07-21T14:50:36.019Z,33.80
2018-07-21T14:53:04.159Z,34.00
2018-07-21T14:55:32.294Z,34.30
2018-07-21T14:58:00.417Z,34.80
2018-07-21T15:00:28.590Z,35.30
2018-07-21T15:02:56.715Z,35.10
2018-07-21T15:07:52.759Z,33.60
2018-07-21T15:12:48.848Z,31.90
2018-07-21T15:15:16.986Z,31.00
2018-07-21T15:17:45.125Z,30.30
2018-07-21T15:20:13.252Z,29.70
2018-07-21T15:22:41.395Z,29.10
2018-07-21T15:27:37.426Z,28.40
2018-07-21T15:35:01.466Z,27.50
2018-07-21T15:37:29.594Z,27.40
2018-07-21T15:39:57.821Z,27.30
2018-07-21T15:42:25.940Z,27.30
2018-07-21T15:44:54.094Z,27.10
2018-07-21T15:47:22.236Z,27.00
2018-07-21T15:49:50.383Z,26.80
2018-07-21T15:52:18.526Z,26.60
2018-07-21T15:54:46.720Z,26.50
2018-07-21T15:57:14.835Z,26.40
2018-07-21T15:59:42.971Z,26.40
2018-07-21T16:02:11.122Z,26.40
2018-07-21T16:04:39.345Z,26.40
2018-07-21T16:07:07.450Z,26.30
2018-07-21T16:09:35.683Z,26.30
2018-07-21T16:12:03.776Z,25.90
2018-07-21T16:14:31.915Z,25.70
2018-07-21T16:17:00.106Z,25.30
2018-07-21T16:19:28.239Z,25.20
2018-07-21T16:21:56.400Z,24.80
2018-07-21T16:24:24.533Z,24.70
2018-07-21T16:26:52.678Z,24.60
2018-07-21T16:29:21.622Z,23.90
2018-07-21T16:31:49.967Z,23.40
2018-07-21T16:34:18.097Z,23.20
2018-07-21T16:41:42.100Z,23.00
2018-07-21T16:46:38.183Z,23.10
2018-07-21T16:49:06.315Z,23.10
2018-07-21T16:54:02.346Z,23.00
2018-07-21T16:58:58.579Z,23.00
2018-07-21T17:01:26.763Z,23.00
2018-07-21T17:08:50.826Z,22.80
2018-07-21T17:11:18.978Z,22.70
2018-07-21T17:13:47.115Z,22.70
2018-07-21T17:21:11.176Z,22.60
2018-07-21T17:23:39.291Z,22.50
2018-07-21T17:26:07.431Z,22.50
2018-07-21T17:28:35.582Z,22.40
2018-07-21T17:31:03.731Z,22.30
2018-07-21T17:33:31.875Z,22.30
2018-07-21T17:36:00.012Z,22.20
2018-07-21T17:38:28.143Z,22.20
2018-07-21T17:40:56.298Z,22.30
2018-07-21T17:45:52.419Z,22.20
2018-07-21T17:48:20.555Z,22.20
2018-07-21T17:50:48.688Z,22.20
2018-07-21T17:58:12.812Z,22.00
2018-07-21T18:00:40.899Z,22.00
2018-07-21T18:03:09.059Z,21.90
2018-07-21T18:05:37.178Z,21.90
2018-07-21T18:08:05.338Z,21.90
2018-07-21T18:10:33.446Z,21.90
2018-07-21T18:15:29.494Z,21.70
2018-07-21T18:22:53.550Z,21.60
2018-07-21T18:25:21.777Z,21.60
2018-07-21T18:27:49.851Z,21.50
2018-07-21T18:32:45.998Z,21.50
2018-07-21T18:35:14.152Z,21.50
2018-07-21T18:40:10.277Z,21.40
2018-07-21T18:45:06.296Z,21.50
2018-07-21T18:47:34.453Z,21.50
2018-07-21T18:50:02.586Z,21.60
2018-07-21T18:52:30.727Z,21.60
2018-07-21T18:54:58.879Z,21.60
2018-07-21T18:57:27.038Z,21.70
2018-07-21T18:59:56.068Z,21.60
2018-07-21T19:04:52.188Z,21.50
2018-07-21T19:07:20.338Z,21.40
2018-07-21T19:09:48.466Z,21.40
2018-07-21T19:12:22.048Z,21.40
2018-07-21T19:14:50.219Z,21.50
2018-07-21T19:17:18.370Z,21.50
2018-07-21T19:19:52.014Z,21.60
2018-07-21T19:22:20.159Z,21.60
2018-07-21T19:24:48.295Z,21.70
2018-07-21T19:27:22.004Z,21.70
2018-07-21T19:29:50.144Z,21.70
2018-07-21T19:34:51.701Z,21.70
2018-07-21T19:37:25.336Z,21.60
2018-07-21T19:42:21.419Z,21.40
2018-07-21T19:44:49.560Z,21.30
2018-07-21T19:47:17.740Z,21.30
2018-07-21T19:49:45.866Z,21.30
2018-07-21T19:52:14.007Z,21.40
2018-07-21T19:54:42.136Z,21.40
2018-07-21T19:57:10.298Z,21.30
2018-07-21T20:02:06.375Z,21.40
2018-07-21T20:04:34.527Z,21.40
2018-07-21T20:07:02.675Z,21.40
2018-07-21T20:09:37.630Z,21.40
2018-07-21T20:12:05.755Z,21.40
2018-07-21T20:14:33.902Z,21.40
2018-07-21T20:17:02.040Z,21.30
2018-07-21T20:21:58.062Z,21.30
2018-07-21T20:26:54.136Z,21.20
2018-07-21T20:29:22.319Z,21.10
2018-07-21T20:31:50.475Z,21.10
2018-07-21T20:34:18.612Z,21.00
2018-07-21T20:36:46.750Z,21.00
2018-07-21T20:39:14.889Z,21.00
2018-07-21T20:44:10.962Z,20.90
2018-07-21T20:46:39.099Z,20.90
2018-07-21T20:54:03.181Z,20.90
2018-07-21T20:56:31.308Z,20.90
2018-07-21T20:58:59.463Z,20.90
2018-07-21T21:01:27.612Z,20.90
2018-07-21T21:03:55.755Z,20.90
2018-07-21T21:06:23.927Z,20.90
2018-07-21T21:08:52.023Z,20.90
2018-07-21T21:11:20.218Z,20.90
2018-07-21T21:16:16.323Z,20.80
2018-07-21T21:18:44.526Z,20.80
2018-07-21T21:21:12.655Z,20.80
2018-07-21T21:23:40.786Z,20.80
2018-07-21T21:26:08.943Z,20.80
2018-07-21T21:28:37.130Z,20.80
2018-07-21T21:33:33.320Z,20.80
2018-07-21T21:36:01.435Z,20.70
2018-07-21T21:40:57.464Z,20.60
2018-07-21T21:43:25.615Z,20.60
2018-07-21T21:45:53.782Z,20.60
2018-07-21T21:48:21.944Z,20.50
2018-07-21T21:50:50.063Z,20.50
2018-07-21T21:53:18.287Z,20.40
2018-07-21T21:55:46.452Z,20.40
2018-07-21T21:58:14.596Z,20.40
2018-07-21T22:03:46.839Z,20.50
2018-07-21T22:06:14.969Z,20.50
2018-07-21T22:13:39.032Z,20.60
2018-07-21T22:16:07.192Z,20.60
2018-07-21T22:18:35.351Z,20.60
2018-07-21T22:21:03.482Z,20.60
2018-07-21T22:23:31.631Z,20.70
2018-07-21T22:25:59.769Z,20.60
2018-07-21T22:28:27.891Z,20.60
2018-07-21T22:30:56.036Z,20.60
2018-07-21T22:33:24.179Z,20.70
2018-07-21T22:35:52.323Z,20.70
2018-07-21T22:40:48.434Z,20.80
2018-07-21T22:43:16.608Z,20.80
2018-07-21T22:45:44.726Z,20.80
2018-07-21T22:48:12.878Z,20.70
2018-07-21T22:53:08.932Z,20.70
2018-07-21T22:55:37.074Z,20.70
2018-07-21T22:58:05.218Z,20.60
2018-07-21T23:00:33.379Z,20.60
2018-07-21T23:03:01.515Z,20.70
2018-07-21T23:07:57.592Z,20.60
2018-07-21T23:10:25.751Z,20.60
2018-07-21T23:12:53.939Z,20.60
2018-07-21T23:15:22.073Z,20.50
2018-07-21T23:17:50.253Z,20.50
2018-07-21T23:20:18.385Z,20.50
2018-07-21T23:22:46.532Z,20.50
2018-07-21T23:25:14.659Z,20.50
2018-07-21T23:30:10.794Z,20.40
2018-07-21T23:32:38.950Z,20.50
2018-07-21T23:35:07.088Z,20.50
2018-07-21T23:37:36.248Z,20.50
2018-07-21T23:42:32.583Z,20.50
2018-07-21T23:45:00.776Z,20.40
2018-07-21T23:49:56.872Z,20.40
2018-07-21T23:52:25.014Z,20.40
2018-07-21T23:54:53.243Z,20.30
2018-07-21T23:57:21.516Z,20.30
2018-07-21T23:59:49.679Z,20.20
